Etusivu
METAR-TAF:

METAR-TAF

Lentoasemat :

Geneven kansainvälinen lentoasema

Geneve, Sveitsi

Leveyspiiri: 46-15N, Pituuspiiri: 006-08E, korkeus merenpinnasta: 420 m

Tämänhetkinen sää

Tämä raportti tehtiin 37 minuuttia sitten, kello 14.20 UTC
Tuuli 3 kn koillisesta, vaihdellen pohjoisen ja idän välillä
Lämpötila 23°C
Kosteus 27%
Ilmanpaine 1018 hPa
Näkyvyys 10 km tai enemmän
Muutamia pilviä 8000 ft:n korkeudessa
Hajonneita pilviä 30000 ft:n korkeudessa

METAR: LSGG 161420Z 04003KT 360V100 9999 FEW080 BKN300 23/03 Q1018 NOSIG

Aika: 16:57 (14:57 UTC)

Sääennuste

Tämä raportti tehtiin 32 minuuttia sitten, kello 14.25 UTC
Ennuste voimassa 16. päivästä klo 15 UTC - 17. päivään klo 21 UTC
Tuuli 4 kn idästä/koillisesta
Näkyvyys 10 km tai enemmän
ei pilviä alle 1500 m:ssä eikä cumulonimbus-pilviä

TAF: LSGG 161425Z 1615/1721 06004KT CAVOK TX23/1615Z TN08/1706Z TX21/1715Z

Säähavainnot ja -ennusteet yli 4000 lentoasemalta (METAR- ja TAF-raportit).

Käytössä olevat sääasemat on merkitty karttaan keltaisilla ja punaisilla pisteillä.

Aseta hiiri pisteen päälle nähdäksesi sääaseman nimen.

Klikkaa sitten nähdäksesi säähavainnot ja -ennusteet.

Kartan vaihtaminen: klikkaa mustalla rastilla varustettuja vihreitä pisteitä, niin voit zoomata sisään; viivalla varustettua vihreää pistettä, niin voit zoomata ulos tai vihreitä nuolia, niin pääset viereisille kartoille.


METAR-TAF: